sensor_id;sensor_type;location;lat;lon;timestamp;P1;durP1;ratioP1;P2;durP2;ratioP2
77276;SDS011;66330;52.166;9.978;2023-04-16T00:02:15;24.20;;;21.80;;
77276;SDS011;66330;52.166;9.978;2023-04-16T00:04:41;25.27;;;22.70;;
77276;SDS011;66330;52.166;9.978;2023-04-16T00:07:06;23.87;;;21.47;;
77276;SDS011;66330;52.166;9.978;2023-04-16T00:09:32;25.67;;;23.27;;
77276;SDS011;66330;52.166;9.978;2023-04-16T00:11:58;26.90;;;24.20;;
77276;SDS011;66330;52.166;9.978;2023-04-16T00:14:24;26.60;;;24.07;;
77276;SDS011;66330;52.166;9.978;2023-04-16T00:16:49;25.20;;;22.70;;
77276;SDS011;66330;52.166;9.978;2023-04-16T00:19:15;24.80;;;22.47;;
77276;SDS011;66330;52.166;9.978;2023-04-16T00:21:40;26.07;;;23.57;;
77276;SDS011;66330;52.166;9.978;2023-04-16T00:24:06;26.37;;;23.80;;
77276;SDS011;66330;52.166;9.978;2023-04-16T00:26:31;26.07;;;23.67;;
77276;SDS011;66330;52.166;9.978;2023-04-16T00:28:57;27.07;;;24.37;;
77276;SDS011;66330;52.166;9.978;2023-04-16T00:31:26;27.27;;;23.87;;
77276;SDS011;66330;52.166;9.978;2023-04-16T00:33:56;28.17;;;25.43;;
77276;SDS011;66330;52.166;9.978;2023-04-16T00:36:22;29.07;;;26.27;;
77276;SDS011;66330;52.166;9.978;2023-04-16T00:38:48;28.70;;;25.90;;
77276;SDS011;66330;52.166;9.978;2023-04-16T00:41:14;27.47;;;24.67;;
77276;SDS011;66330;52.166;9.978;2023-04-16T00:43:40;27.63;;;24.93;;
77276;SDS011;66330;52.166;9.978;2023-04-16T00:46:06;28.17;;;25.37;;
77276;SDS011;66330;52.166;9.978;2023-04-16T00:48:32;29.67;;;26.67;;
77276;SDS011;66330;52.166;9.978;2023-04-16T00:51:03;28.53;;;25.50;;
77276;SDS011;66330;52.166;9.978;2023-04-16T00:53:30;29.77;;;26.87;;
77276;SDS011;66330;52.166;9.978;2023-04-16T00:55:56;29.90;;;27.00;;
77276;SDS011;66330;52.166;9.978;2023-04-16T00:58:22;30.00;;;27.07;;
77276;SDS011;66330;52.166;9.978;2023-04-16T01:00:48;30.43;;;27.50;;
77276;SDS011;66330;52.166;9.978;2023-04-16T01:03:14;30.87;;;27.67;;
77276;SDS011;66330;52.166;9.978;2023-04-16T01:05:40;32.17;;;28.80;;
77276;SDS011;66330;52.166;9.978;2023-04-16T01:08:05;30.20;;;27.20;;
77276;SDS011;66330;52.166;9.978;2023-04-16T01:10:31;30.60;;;27.50;;
77276;SDS011;66330;52.166;9.978;2023-04-16T01:12:57;30.47;;;27.50;;
77276;SDS011;66330;52.166;9.978;2023-04-16T01:15:22;29.97;;;26.93;;
77276;SDS011;66330;52.166;9.978;2023-04-16T01:17:48;33.60;;;27.00;;
77276;SDS011;66330;52.166;9.978;2023-04-16T01:20:13;32.60;;;27.70;;
77276;SDS011;66330;52.166;9.978;2023-04-16T01:22:39;30.13;;;27.10;;
77276;SDS011;66330;52.166;9.978;2023-04-16T01:25:05;31.57;;;28.27;;
77276;SDS011;66330;52.166;9.978;2023-04-16T01:27:30;30.60;;;27.40;;
77276;SDS011;66330;52.166;9.978;2023-04-16T01:29:56;29.50;;;26.47;;
77276;SDS011;66330;52.166;9.978;2023-04-16T01:32:22;30.23;;;27.40;;
77276;SDS011;66330;52.166;9.978;2023-04-16T01:34:48;31.60;;;27.80;;
77276;SDS011;66330;52.166;9.978;2023-04-16T01:37:13;29.07;;;26.00;;
77276;SDS011;66330;52.166;9.978;2023-04-16T01:39:39;31.50;;;28.20;;
77276;SDS011;66330;52.166;9.978;2023-04-16T01:42:04;31.50;;;28.37;;
77276;SDS011;66330;52.166;9.978;2023-04-16T01:44:30;30.80;;;27.73;;
77276;SDS011;66330;52.166;9.978;2023-04-16T01:46:55;31.40;;;26.20;;
77276;SDS011;66330;52.166;9.978;2023-04-16T01:49:21;28.60;;;25.80;;
77276;SDS011;66330;52.166;9.978;2023-04-16T01:51:47;34.97;;;27.83;;
77276;SDS011;66330;52.166;9.978;2023-04-16T01:54:12;31.60;;;28.37;;
77276;SDS011;66330;52.166;9.978;2023-04-16T01:56:38;30.60;;;27.40;;
77276;SDS011;66330;52.166;9.978;2023-04-16T01:59:04;31.77;;;27.20;;
77276;SDS011;66330;52.166;9.978;2023-04-16T02:01:29;29.13;;;26.03;;
77276;SDS011;66330;52.166;9.978;2023-04-16T02:03:55;30.60;;;27.30;;
77276;SDS011;66330;52.166;9.978;2023-04-16T02:06:21;29.67;;;26.10;;
77276;SDS011;66330;52.166;9.978;2023-04-16T02:08:47;30.80;;;27.70;;
77276;SDS011;66330;52.166;9.978;2023-04-16T02:11:13;30.03;;;27.10;;
77276;SDS011;66330;52.166;9.978;2023-04-16T02:13:39;32.00;;;28.57;;
77276;SDS011;66330;52.166;9.978;2023-04-16T02:16:05;30.20;;;26.93;;
77276;SDS011;66330;52.166;9.978;2023-04-16T02:18:30;32.47;;;29.03;;
77276;SDS011;66330;52.166;9.978;2023-04-16T02:20:56;32.17;;;29.00;;
77276;SDS011;66330;52.166;9.978;2023-04-16T02:23:24;31.47;;;28.30;;
77276;SDS011;66330;52.166;9.978;2023-04-16T02:25:49;30.30;;;27.10;;
77276;SDS011;66330;52.166;9.978;2023-04-16T02:28:15;31.87;;;28.57;;
77276;SDS011;66330;52.166;9.978;2023-04-16T02:30:41;31.37;;;28.07;;
77276;SDS011;66330;52.166;9.978;2023-04-16T02:33:08;29.63;;;26.50;;
77276;SDS011;66330;52.166;9.978;2023-04-16T02:35:34;33.10;;;27.57;;
77276;SDS011;66330;52.166;9.978;2023-04-16T02:38:01;32.63;;;27.93;;
77276;SDS011;66330;52.166;9.978;2023-04-16T02:40:28;29.40;;;26.30;;
77276;SDS011;66330;52.166;9.978;2023-04-16T02:42:54;33.43;;;28.60;;
77276;SDS011;66330;52.166;9.978;2023-04-16T02:45:20;30.67;;;27.37;;
77276;SDS011;66330;52.166;9.978;2023-04-16T02:47:46;32.03;;;28.70;;
77276;SDS011;66330;52.166;9.978;2023-04-16T02:50:12;34.13;;;29.57;;
77276;SDS011;66330;52.166;9.978;2023-04-16T02:52:38;37.03;;;31.20;;
77276;SDS011;66330;52.166;9.978;2023-04-16T02:55:04;31.77;;;28.57;;
77276;SDS011;66330;52.166;9.978;2023-04-16T02:57:31;33.97;;;28.10;;
77276;SDS011;66330;52.166;9.978;2023-04-16T02:59:57;34.87;;;31.07;;
77276;SDS011;66330;52.166;9.978;2023-04-16T03:02:22;32.43;;;28.93;;
77276;SDS011;66330;52.166;9.978;2023-04-16T03:04:48;32.10;;;28.10;;
77276;SDS011;66330;52.166;9.978;2023-04-16T03:07:13;38.13;;;30.30;;
77276;SDS011;66330;52.166;9.978;2023-04-16T03:09:39;35.50;;;28.57;;
77276;SDS011;66330;52.166;9.978;2023-04-16T03:12:05;31.23;;;27.90;;
77276;SDS011;66330;52.166;9.978;2023-04-16T03:14:30;33.73;;;29.70;;
77276;SDS011;66330;52.166;9.978;2023-04-16T03:16:57;32.90;;;29.30;;
77276;SDS011;66330;52.166;9.978;2023-04-16T03:19:22;34.90;;;28.40;;
77276;SDS011;66330;52.166;9.978;2023-04-16T03:21:48;34.00;;;28.57;;
77276;SDS011;66330;52.166;9.978;2023-04-16T03:24:14;32.80;;;28.80;;
77276;SDS011;66330;52.166;9.978;2023-04-16T03:26:39;31.73;;;27.33;;
77276;SDS011;66330;52.166;9.978;2023-04-16T03:29:05;34.17;;;30.20;;
77276;SDS011;66330;52.166;9.978;2023-04-16T03:31:31;38.93;;;31.20;;
77276;SDS011;66330;52.166;9.978;2023-04-16T03:33:56;32.33;;;27.60;;
77276;SDS011;66330;52.166;9.978;2023-04-16T03:36:22;33.53;;;29.23;;
77276;SDS011;66330;52.166;9.978;2023-04-16T03:38:48;38.10;;;30.77;;
77276;SDS011;66330;52.166;9.978;2023-04-16T03:41:13;33.03;;;29.40;;
77276;SDS011;66330;52.166;9.978;2023-04-16T03:43:39;33.00;;;29.47;;
77276;SDS011;66330;52.166;9.978;2023-04-16T03:46:05;32.10;;;28.63;;
77276;SDS011;66330;52.166;9.978;2023-04-16T03:48:30;31.43;;;28.00;;
77276;SDS011;66330;52.166;9.978;2023-04-16T03:50:56;32.00;;;26.73;;
77276;SDS011;66330;52.166;9.978;2023-04-16T03:53:22;30.13;;;26.77;;
77276;SDS011;66330;52.166;9.978;2023-04-16T03:55:51;32.37;;;28.70;;
77276;SDS011;66330;52.166;9.978;2023-04-16T03:58:17;30.70;;;27.40;;
77276;SDS011;66330;52.166;9.978;2023-04-16T04:00:43;30.80;;;26.53;;
77276;SDS011;66330;52.166;9.978;2023-04-16T04:03:09;31.73;;;27.13;;
77276;SDS011;66330;52.166;9.978;2023-04-16T04:05:38;30.90;;;25.93;;
77276;SDS011;66330;52.166;9.978;2023-04-16T04:08:05;31.60;;;27.60;;
77276;SDS011;66330;52.166;9.978;2023-04-16T04:10:33;29.93;;;26.70;;
77276;SDS011;66330;52.166;9.978;2023-04-16T04:13:01;31.87;;;27.30;;
77276;SDS011;66330;52.166;9.978;2023-04-16T04:15:28;34.00;;;26.63;;
77276;SDS011;66330;52.166;9.978;2023-04-16T04:17:53;33.70;;;28.00;;
77276;SDS011;66330;52.166;9.978;2023-04-16T04:20:19;32.50;;;29.00;;
77276;SDS011;66330;52.166;9.978;2023-04-16T04:22:45;33.00;;;29.37;;
77276;SDS011;66330;52.166;9.978;2023-04-16T04:25:10;35.97;;;28.57;;
77276;SDS011;66330;52.166;9.978;2023-04-16T04:27:36;36.63;;;29.97;;
77276;SDS011;66330;52.166;9.978;2023-04-16T04:30:02;39.20;;;32.97;;
77276;SDS011;66330;52.166;9.978;2023-04-16T04:32:28;37.63;;;30.97;;
77276;SDS011;66330;52.166;9.978;2023-04-16T04:34:55;36.63;;;31.63;;
77276;SDS011;66330;52.166;9.978;2023-04-16T04:37:20;39.30;;;32.23;;
77276;SDS011;66330;52.166;9.978;2023-04-16T04:39:46;38.37;;;33.00;;
77276;SDS011;66330;52.166;9.978;2023-04-16T04:42:11;40.13;;;31.47;;
77276;SDS011;66330;52.166;9.978;2023-04-16T04:44:37;36.53;;;32.03;;
77276;SDS011;66330;52.166;9.978;2023-04-16T04:47:03;35.00;;;29.53;;
77276;SDS011;66330;52.166;9.978;2023-04-16T04:49:28;35.83;;;27.90;;
77276;SDS011;66330;52.166;9.978;2023-04-16T04:51:54;36.60;;;29.40;;
77276;SDS011;66330;52.166;9.978;2023-04-16T04:54:20;34.83;;;28.13;;
77276;SDS011;66330;52.166;9.978;2023-04-16T04:56:46;35.27;;;29.50;;
77276;SDS011;66330;52.166;9.978;2023-04-16T04:59:11;34.23;;;29.00;;
77276;SDS011;66330;52.166;9.978;2023-04-16T05:01:37;35.60;;;26.97;;
77276;SDS011;66330;52.166;9.978;2023-04-16T05:04:03;36.03;;;28.67;;
77276;SDS011;66330;52.166;9.978;2023-04-16T05:06:29;35.00;;;29.33;;
77276;SDS011;66330;52.166;9.978;2023-04-16T05:08:55;34.00;;;29.50;;
77276;SDS011;66330;52.166;9.978;2023-04-16T05:11:21;34.67;;;28.97;;
77276;SDS011;66330;52.166;9.978;2023-04-16T05:13:46;34.70;;;30.30;;
77276;SDS011;66330;52.166;9.978;2023-04-16T05:16:12;34.40;;;28.97;;
77276;SDS011;66330;52.166;9.978;2023-04-16T05:18:37;38.60;;;31.27;;
77276;SDS011;66330;52.166;9.978;2023-04-16T05:21:03;35.27;;;29.60;;
77276;SDS011;66330;52.166;9.978;2023-04-16T05:23:29;35.40;;;28.53;;
77276;SDS011;66330;52.166;9.978;2023-04-16T05:25:54;32.07;;;28.00;;
77276;SDS011;66330;52.166;9.978;2023-04-16T05:28:20;33.53;;;27.30;;
77276;SDS011;66330;52.166;9.978;2023-04-16T05:30:45;33.77;;;28.83;;
77276;SDS011;66330;52.166;9.978;2023-04-16T05:33:11;36.47;;;28.00;;
77276;SDS011;66330;52.166;9.978;2023-04-16T05:35:36;34.43;;;28.47;;
77276;SDS011;66330;52.166;9.978;2023-04-16T05:38:02;33.27;;;28.23;;
77276;SDS011;66330;52.166;9.978;2023-04-16T05:40:31;35.10;;;27.90;;
77276;SDS011;66330;52.166;9.978;2023-04-16T05:42:56;32.33;;;27.93;;
77276;SDS011;66330;52.166;9.978;2023-04-16T05:45:22;29.50;;;26.03;;
77276;SDS011;66330;52.166;9.978;2023-04-16T05:47:48;31.03;;;27.43;;
77276;SDS011;66330;52.166;9.978;2023-04-16T05:50:13;36.37;;;29.77;;
77276;SDS011;66330;52.166;9.978;2023-04-16T05:52:39;32.90;;;27.00;;
77276;SDS011;66330;52.166;9.978;2023-04-16T05:55:04;32.83;;;27.27;;
77276;SDS011;66330;52.166;9.978;2023-04-16T05:57:31;35.03;;;29.47;;
77276;SDS011;66330;52.166;9.978;2023-04-16T05:59:57;32.97;;;28.20;;
77276;SDS011;66330;52.166;9.978;2023-04-16T06:02:23;33.10;;;28.20;;
77276;SDS011;66330;52.166;9.978;2023-04-16T06:04:48;35.60;;;31.03;;
77276;SDS011;66330;52.166;9.978;2023-04-16T06:07:14;40.53;;;34.93;;
77276;SDS011;66330;52.166;9.978;2023-04-16T06:09:40;38.27;;;34.10;;
77276;SDS011;66330;52.166;9.978;2023-04-16T06:12:05;37.77;;;33.67;;
77276;SDS011;66330;52.166;9.978;2023-04-16T06:14:31;36.13;;;30.70;;
77276;SDS011;66330;52.166;9.978;2023-04-16T06:16:57;34.80;;;31.00;;
77276;SDS011;66330;52.166;9.978;2023-04-16T06:19:22;35.50;;;29.87;;
77276;SDS011;66330;52.166;9.978;2023-04-16T06:21:48;33.87;;;28.77;;
77276;SDS011;66330;52.166;9.978;2023-04-16T06:24:14;36.63;;;28.10;;
77276;SDS011;66330;52.166;9.978;2023-04-16T06:26:39;34.03;;;30.27;;
77276;SDS011;66330;52.166;9.978;2023-04-16T06:29:05;32.07;;;28.53;;
77276;SDS011;66330;52.166;9.978;2023-04-16T06:31:31;33.23;;;27.23;;
77276;SDS011;66330;52.166;9.978;2023-04-16T06:33:56;36.10;;;28.20;;
77276;SDS011;66330;52.166;9.978;2023-04-16T06:36:22;36.10;;;27.97;;
77276;SDS011;66330;52.166;9.978;2023-04-16T06:38:47;31.20;;;26.37;;
77276;SDS011;66330;52.166;9.978;2023-04-16T06:41:13;32.03;;;28.57;;
77276;SDS011;66330;52.166;9.978;2023-04-16T06:43:39;30.70;;;26.33;;
77276;SDS011;66330;52.166;9.978;2023-04-16T06:46:05;31.70;;;26.53;;
77276;SDS011;66330;52.166;9.978;2023-04-16T06:48:30;32.83;;;27.73;;
77276;SDS011;66330;52.166;9.978;2023-04-16T06:50:56;33.70;;;28.10;;
77276;SDS011;66330;52.166;9.978;2023-04-16T06:53:22;29.10;;;25.97;;
77276;SDS011;66330;52.166;9.978;2023-04-16T06:55:50;33.57;;;28.10;;
77276;SDS011;66330;52.166;9.978;2023-04-16T06:58:16;30.37;;;27.00;;
77276;SDS011;66330;52.166;9.978;2023-04-16T07:00:41;29.40;;;26.10;;
77276;SDS011;66330;52.166;9.978;2023-04-16T07:03:07;29.87;;;26.57;;
77276;SDS011;66330;52.166;9.978;2023-04-16T07:05:32;32.30;;;26.87;;
77276;SDS011;66330;52.166;9.978;2023-04-16T07:07:58;29.70;;;26.60;;
77276;SDS011;66330;52.166;9.978;2023-04-16T07:10:23;27.30;;;24.20;;
77276;SDS011;66330;52.166;9.978;2023-04-16T07:12:49;29.80;;;26.57;;
77276;SDS011;66330;52.166;9.978;2023-04-16T07:15:15;30.03;;;26.93;;
77276;SDS011;66330;52.166;9.978;2023-04-16T07:17:41;28.10;;;25.10;;
77276;SDS011;66330;52.166;9.978;2023-04-16T07:20:06;29.80;;;24.30;;
77276;SDS011;66330;52.166;9.978;2023-04-16T07:22:32;33.17;;;26.27;;
77276;SDS011;66330;52.166;9.978;2023-04-16T07:24:58;30.30;;;25.63;;
77276;SDS011;66330;52.166;9.978;2023-04-16T07:27:24;29.47;;;26.30;;
77276;SDS011;66330;52.166;9.978;2023-04-16T07:29:49;28.70;;;24.73;;
77276;SDS011;66330;52.166;9.978;2023-04-16T07:32:15;30.30;;;26.90;;
77276;SDS011;66330;52.166;9.978;2023-04-16T07:34:40;32.43;;;27.17;;
77276;SDS011;66330;52.166;9.978;2023-04-16T07:37:06;30.60;;;27.50;;
77276;SDS011;66330;52.166;9.978;2023-04-16T07:39:32;28.87;;;24.13;;
77276;SDS011;66330;52.166;9.978;2023-04-16T07:41:57;29.90;;;26.60;;
77276;SDS011;66330;52.166;9.978;2023-04-16T07:44:23;30.63;;;26.50;;
77276;SDS011;66330;52.166;9.978;2023-04-16T07:46:48;30.30;;;27.10;;
77276;SDS011;66330;52.166;9.978;2023-04-16T07:49:14;24.80;;;22.10;;
77276;SDS011;66330;52.166;9.978;2023-04-16T07:51:40;27.40;;;24.37;;
77276;SDS011;66330;52.166;9.978;2023-04-16T07:54:05;25.73;;;23.07;;
77276;SDS011;66330;52.166;9.978;2023-04-16T07:56:31;26.23;;;23.03;;
77276;SDS011;66330;52.166;9.978;2023-04-16T07:58:56;27.97;;;23.83;;
77276;SDS011;66330;52.166;9.978;2023-04-16T08:01:22;25.07;;;22.37;;
77276;SDS011;66330;52.166;9.978;2023-04-16T08:03:47;25.87;;;23.30;;
77276;SDS011;66330;52.166;9.978;2023-04-16T08:06:13;24.20;;;21.60;;
77276;SDS011;66330;52.166;9.978;2023-04-16T08:08:39;25.77;;;22.53;;
77276;SDS011;66330;52.166;9.978;2023-04-16T08:11:04;24.57;;;21.07;;
77276;SDS011;66330;52.166;9.978;2023-04-16T08:13:30;25.97;;;23.13;;
77276;SDS011;66330;52.166;9.978;2023-04-16T08:15:55;25.10;;;22.37;;
77276;SDS011;66330;52.166;9.978;2023-04-16T08:18:21;23.43;;;21.10;;
77276;SDS011;66330;52.166;9.978;2023-04-16T08:20:46;22.90;;;20.60;;
77276;SDS011;66330;52.166;9.978;2023-04-16T08:23:12;24.23;;;21.23;;
77276;SDS011;66330;52.166;9.978;2023-04-16T08:25:37;24.70;;;22.17;;
77276;SDS011;66330;52.166;9.978;2023-04-16T08:28:03;23.20;;;21.00;;
77276;SDS011;66330;52.166;9.978;2023-04-16T08:30:29;24.53;;;21.47;;
77276;SDS011;66330;52.166;9.978;2023-04-16T08:32:55;23.07;;;20.57;;
77276;SDS011;66330;52.166;9.978;2023-04-16T08:35:20;22.50;;;20.10;;
77276;SDS011;66330;52.166;9.978;2023-04-16T08:37:47;23.10;;;20.70;;
77276;SDS011;66330;52.166;9.978;2023-04-16T08:40:12;21.87;;;19.50;;
77276;SDS011;66330;52.166;9.978;2023-04-16T08:42:39;23.90;;;21.30;;
77276;SDS011;66330;52.166;9.978;2023-04-16T08:45:12;21.87;;;19.57;;
77276;SDS011;66330;52.166;9.978;2023-04-16T08:47:40;21.73;;;19.53;;
77276;SDS011;66330;52.166;9.978;2023-04-16T08:50:10;25.57;;;20.33;;
77276;SDS011;66330;52.166;9.978;2023-04-16T08:52:58;20.80;;;18.70;;
77276;SDS011;66330;52.166;9.978;2023-04-16T08:55:36;23.43;;;19.50;;
77276;SDS011;66330;52.166;9.978;2023-04-16T08:58:08;21.00;;;18.90;;
77276;SDS011;66330;52.166;9.978;2023-04-16T09:00:42;20.37;;;18.37;;
77276;SDS011;66330;52.166;9.978;2023-04-16T09:03:08;22.00;;;19.83;;
77276;SDS011;66330;52.166;9.978;2023-04-16T09:05:37;20.70;;;18.70;;
77276;SDS011;66330;52.166;9.978;2023-04-16T09:08:03;19.83;;;17.93;;
77276;SDS011;66330;52.166;9.978;2023-04-16T09:10:30;22.47;;;20.20;;
77276;SDS011;66330;52.166;9.978;2023-04-16T09:12:56;21.67;;;19.30;;
77276;SDS011;66330;52.166;9.978;2023-04-16T09:15:22;21.10;;;18.77;;
77276;SDS011;66330;52.166;9.978;2023-04-16T09:17:52;21.97;;;19.37;;
77276;SDS011;66330;52.166;9.978;2023-04-16T09:20:18;21.50;;;19.13;;
77276;SDS011;66330;52.166;9.978;2023-04-16T09:22:45;20.30;;;17.83;;
77276;SDS011;66330;52.166;9.978;2023-04-16T09:25:11;20.53;;;18.43;;
77276;SDS011;66330;52.166;9.978;2023-04-16T09:27:37;21.03;;;18.70;;
77276;SDS011;66330;52.166;9.978;2023-04-16T09:32:48;19.27;;;17.20;;
77276;SDS011;66330;52.166;9.978;2023-04-16T09:35:16;21.30;;;19.00;;
77276;SDS011;66330;52.166;9.978;2023-04-16T09:37:42;20.60;;;18.50;;
77276;SDS011;66330;52.166;9.978;2023-04-16T09:40:08;20.20;;;17.83;;
77276;SDS011;66330;52.166;9.978;2023-04-16T09:42:34;18.47;;;16.33;;
77276;SDS011;66330;52.166;9.978;2023-04-16T09:45:01;20.50;;;18.30;;
77276;SDS011;66330;52.166;9.978;2023-04-16T09:47:43;19.73;;;17.63;;
77276;SDS011;66330;52.166;9.978;2023-04-16T09:50:13;20.20;;;18.07;;
77276;SDS011;66330;52.166;9.978;2023-04-16T09:52:42;21.47;;;18.10;;
77276;SDS011;66330;52.166;9.978;2023-04-16T09:55:09;19.70;;;17.70;;
77276;SDS011;66330;52.166;9.978;2023-04-16T09:57:36;20.47;;;18.30;;
77276;SDS011;66330;52.166;9.978;2023-04-16T10:00:03;23.87;;;19.57;;
77276;SDS011;66330;52.166;9.978;2023-04-16T10:02:31;19.33;;;17.27;;
77276;SDS011;66330;52.166;9.978;2023-04-16T10:04:59;20.63;;;18.43;;
77276;SDS011;66330;52.166;9.978;2023-04-16T10:07:27;21.13;;;18.80;;
77276;SDS011;66330;52.166;9.978;2023-04-16T10:09:54;19.20;;;17.20;;
77276;SDS011;66330;52.166;9.978;2023-04-16T10:12:20;21.50;;;19.40;;
77276;SDS011;66330;52.166;9.978;2023-04-16T10:14:46;20.43;;;18.30;;
77276;SDS011;66330;52.166;9.978;2023-04-16T10:17:11;21.07;;;16.80;;
77276;SDS011;66330;52.166;9.978;2023-04-16T10:19:37;24.10;;;18.20;;
77276;SDS011;66330;52.166;9.978;2023-04-16T10:22:04;20.63;;;18.37;;
77276;SDS011;66330;52.166;9.978;2023-04-16T10:24:31;19.30;;;17.30;;
77276;SDS011;66330;52.166;9.978;2023-04-16T10:26:57;20.07;;;18.17;;
77276;SDS011;66330;52.166;9.978;2023-04-16T10:29:27;20.40;;;17.43;;
77276;SDS011;66330;52.166;9.978;2023-04-16T10:31:54;20.70;;;18.50;;
77276;SDS011;66330;52.166;9.978;2023-04-16T10:34:20;20.73;;;18.73;;
77276;SDS011;66330;52.166;9.978;2023-04-16T10:36:47;21.83;;;19.57;;
77276;SDS011;66330;52.166;9.978;2023-04-16T10:39:16;19.87;;;17.87;;
77276;SDS011;66330;52.166;9.978;2023-04-16T10:41:46;22.57;;;19.33;;
77276;SDS011;66330;52.166;9.978;2023-04-16T10:44:12;20.30;;;18.23;;
77276;SDS011;66330;52.166;9.978;2023-04-16T10:46:43;19.00;;;17.10;;
77276;SDS011;66330;52.166;9.978;2023-04-16T10:49:18;20.47;;;18.37;;
77276;SDS011;66330;52.166;9.978;2023-04-16T10:51:52;20.60;;;17.10;;
77276;SDS011;66330;52.166;9.978;2023-04-16T10:56:51;20.77;;;18.57;;
77276;SDS011;66330;52.166;9.978;2023-04-16T10:59:18;20.10;;;18.10;;
77276;SDS011;66330;52.166;9.978;2023-04-16T11:01:46;19.03;;;16.90;;
77276;SDS011;66330;52.166;9.978;2023-04-16T11:07:01;20.00;;;18.00;;
77276;SDS011;66330;52.166;9.978;2023-04-16T11:09:43;18.90;;;16.90;;
77276;SDS011;66330;52.166;9.978;2023-04-16T11:12:12;19.50;;;17.50;;
77276;SDS011;66330;52.166;9.978;2023-04-16T11:14:40;19.07;;;17.07;;
77276;SDS011;66330;52.166;9.978;2023-04-16T11:17:06;20.23;;;18.23;;
77276;SDS011;66330;52.166;9.978;2023-04-16T11:19:34;21.47;;;18.20;;
77276;SDS011;66330;52.166;9.978;2023-04-16T11:22:01;19.57;;;17.60;;
77276;SDS011;66330;52.166;9.978;2023-04-16T11:24:30;19.70;;;17.70;;
77276;SDS011;66330;52.166;9.978;2023-04-16T11:26:56;19.10;;;17.20;;
77276;SDS011;66330;52.166;9.978;2023-04-16T11:29:22;20.27;;;18.27;;
77276;SDS011;66330;52.166;9.978;2023-04-16T11:31:50;20.07;;;18.07;;
77276;SDS011;66330;52.166;9.978;2023-04-16T11:34:17;19.97;;;17.17;;
77276;SDS011;66330;52.166;9.978;2023-04-16T11:36:46;18.93;;;17.03;;
77276;SDS011;66330;52.166;9.978;2023-04-16T11:39:13;18.93;;;17.13;;
77276;SDS011;66330;52.166;9.978;2023-04-16T11:41:45;18.30;;;16.50;;
77276;SDS011;66330;52.166;9.978;2023-04-16T11:44:18;20.20;;;18.17;;
77276;SDS011;66330;52.166;9.978;2023-04-16T11:46:45;19.57;;;17.67;;
77276;SDS011;66330;52.166;9.978;2023-04-16T11:49:11;19.37;;;17.57;;
77276;SDS011;66330;52.166;9.978;2023-04-16T11:51:40;20.07;;;18.27;;
77276;SDS011;66330;52.166;9.978;2023-04-16T11:54:07;20.10;;;18.20;;
77276;SDS011;66330;52.166;9.978;2023-04-16T11:56:34;19.03;;;17.13;;
77276;SDS011;66330;52.166;9.978;2023-04-16T11:59:20;20.60;;;18.47;;
77276;SDS011;66330;52.166;9.978;2023-04-16T12:01:48;19.03;;;17.33;;
77276;SDS011;66330;52.166;9.978;2023-04-16T12:04:15;21.40;;;19.40;;
77276;SDS011;66330;52.166;9.978;2023-04-16T12:09:31;18.63;;;16.93;;
77276;SDS011;66330;52.166;9.978;2023-04-16T12:11:56;18.77;;;17.07;;
77276;SDS011;66330;52.166;9.978;2023-04-16T12:14:25;20.73;;;18.83;;
77276;SDS011;66330;52.166;9.978;2023-04-16T12:16:51;19.60;;;17.83;;
77276;SDS011;66330;52.166;9.978;2023-04-16T12:19:16;18.80;;;16.90;;
77276;SDS011;66330;52.166;9.978;2023-04-16T12:21:43;19.47;;;17.37;;
77276;SDS011;66330;52.166;9.978;2023-04-16T12:24:14;19.17;;;17.50;;
77276;SDS011;66330;52.166;9.978;2023-04-16T12:26:44;18.80;;;17.20;;
77276;SDS011;66330;52.166;9.978;2023-04-16T12:29:22;18.00;;;16.40;;
77276;SDS011;66330;52.166;9.978;2023-04-16T12:31:52;19.00;;;17.20;;
77276;SDS011;66330;52.166;9.978;2023-04-16T12:34:18;19.90;;;18.03;;
77276;SDS011;66330;52.166;9.978;2023-04-16T12:36:45;19.47;;;17.77;;
77276;SDS011;66330;52.166;9.978;2023-04-16T12:39:12;20.33;;;18.43;;
77276;SDS011;66330;52.166;9.978;2023-04-16T12:41:40;19.30;;;17.50;;
77276;SDS011;66330;52.166;9.978;2023-04-16T12:44:08;20.20;;;18.43;;
77276;SDS011;66330;52.166;9.978;2023-04-16T12:46:38;22.40;;;20.23;;
77276;SDS011;66330;52.166;9.978;2023-04-16T12:49:04;21.97;;;19.87;;
77276;SDS011;66330;52.166;9.978;2023-04-16T12:51:31;21.17;;;19.17;;
77276;SDS011;66330;52.166;9.978;2023-04-16T12:53:57;22.80;;;20.53;;
77276;SDS011;66330;52.166;9.978;2023-04-16T12:56:23;23.23;;;21.23;;
77276;SDS011;66330;52.166;9.978;2023-04-16T12:58:48;24.57;;;22.27;;
77276;SDS011;66330;52.166;9.978;2023-04-16T13:01:16;24.00;;;21.60;;
77276;SDS011;66330;52.166;9.978;2023-04-16T13:03:45;25.70;;;23.30;;
77276;SDS011;66330;52.166;9.978;2023-04-16T13:06:11;29.23;;;26.43;;
77276;SDS011;66330;52.166;9.978;2023-04-16T13:08:38;28.43;;;25.70;;
77276;SDS011;66330;52.166;9.978;2023-04-16T13:11:04;29.73;;;26.83;;
77276;SDS011;66330;52.166;9.978;2023-04-16T13:13:30;29.73;;;26.73;;
77276;SDS011;66330;52.166;9.978;2023-04-16T13:15:56;30.23;;;27.33;;
77276;SDS011;66330;52.166;9.978;2023-04-16T13:18:21;31.80;;;28.60;;
77276;SDS011;66330;52.166;9.978;2023-04-16T13:20:47;30.07;;;27.17;;
77276;SDS011;66330;52.166;9.978;2023-04-16T13:23:13;31.90;;;28.60;;
77276;SDS011;66330;52.166;9.978;2023-04-16T13:25:38;32.47;;;28.97;;
77276;SDS011;66330;52.166;9.978;2023-04-16T13:28:04;28.90;;;26.13;;
77276;SDS011;66330;52.166;9.978;2023-04-16T13:30:30;30.00;;;26.80;;
77276;SDS011;66330;52.166;9.978;2023-04-16T13:32:57;32.43;;;29.10;;
77276;SDS011;66330;52.166;9.978;2023-04-16T13:35:23;41.50;;;37.33;;
77276;SDS011;66330;52.166;9.978;2023-04-16T13:37:48;29.00;;;26.20;;
77276;SDS011;66330;52.166;9.978;2023-04-16T13:40:14;33.73;;;30.33;;
77276;SDS011;66330;52.166;9.978;2023-04-16T13:42:40;29.67;;;26.57;;
77276;SDS011;66330;52.166;9.978;2023-04-16T13:45:06;29.43;;;26.70;;
77276;SDS011;66330;52.166;9.978;2023-04-16T13:47:33;29.33;;;26.43;;
77276;SDS011;66330;52.166;9.978;2023-04-16T13:49:59;30.13;;;27.23;;
77276;SDS011;66330;52.166;9.978;2023-04-16T13:52:25;35.40;;;31.90;;
77276;SDS011;66330;52.166;9.978;2023-04-16T13:54:50;28.93;;;26.10;;
77276;SDS011;66330;52.166;9.978;2023-04-16T13:57:16;30.80;;;27.80;;
77276;SDS011;66330;52.166;9.978;2023-04-16T13:59:42;29.17;;;26.27;;
77276;SDS011;66330;52.166;9.978;2023-04-16T14:02:08;29.40;;;26.43;;
77276;SDS011;66330;52.166;9.978;2023-04-16T14:04:35;27.97;;;25.20;;
77276;SDS011;66330;52.166;9.978;2023-04-16T14:07:00;29.20;;;26.30;;
77276;SDS011;66330;52.166;9.978;2023-04-16T14:09:26;29.63;;;26.60;;
77276;SDS011;66330;52.166;9.978;2023-04-16T14:11:52;32.40;;;27.10;;
77276;SDS011;66330;52.166;9.978;2023-04-16T14:14:17;28.30;;;25.30;;
77276;SDS011;66330;52.166;9.978;2023-04-16T14:16:43;27.57;;;24.83;;
77276;SDS011;66330;52.166;9.978;2023-04-16T14:19:09;33.97;;;30.57;;
77276;SDS011;66330;52.166;9.978;2023-04-16T14:21:34;30.57;;;27.50;;
77276;SDS011;66330;52.166;9.978;2023-04-16T14:24:00;29.00;;;26.10;;
77276;SDS011;66330;52.166;9.978;2023-04-16T14:26:26;26.50;;;23.90;;
77276;SDS011;66330;52.166;9.978;2023-04-16T14:28:52;26.83;;;24.20;;